Hamlet, Illinois
Current Conditions -  °F | °C
As of 6:30 PM on Wednesday 26 Nov 2014 (Local Time) from KMLI Reporting Station
Light Snow Light Snow  
Wind Chill: 20°   Ceiling: 3100
Heat Index: 28°   Visibility: 3mi
Dew Point: 22°   Wind: 8mph
Humidity: 78%   Direction: 50°NE
Pressure: 30.17"   Gusts: NA
Location:  41.1928°N, 90.7165°W
Report Text: KMLI 270030Z 05007KT 3SM -SN FEW017 OVC031 M02/M06 A3017 RMK AO2 SNB03 P0000 T10221056 $
Loading
Personal Weather Stations






























Interactive Weather Map New forecast layout! Learn more

10-Day Weather Forecast

Advertisements
Track Severe Weather on mobile